createdAt,value
2019-03-13T00:00:06.337Z,13.90
2019-03-13T00:02:34.528Z,12.63
2019-03-13T00:05:02.736Z,10.23
2019-03-13T00:07:30.939Z,10.07
2019-03-13T00:09:59.095Z,9.63
2019-03-13T00:12:27.313Z,8.43
2019-03-13T00:14:55.511Z,8.33
2019-03-13T00:17:23.700Z,8.10
2019-03-13T00:19:51.788Z,9.03
2019-03-13T00:22:19.901Z,8.80
2019-03-13T00:24:48.084Z,8.83
2019-03-13T00:27:16.276Z,9.50
2019-03-13T00:29:44.431Z,10.30
2019-03-13T00:32:12.996Z,9.50
2019-03-13T00:34:41.152Z,9.87
2019-03-13T00:37:09.253Z,9.90
2019-03-13T00:39:37.452Z,8.60
2019-03-13T00:42:05.638Z,8.33
2019-03-13T00:44:33.739Z,7.27
2019-03-13T00:47:01.902Z,6.97
2019-03-13T00:49:30.097Z,7.53
2019-03-13T00:51:58.209Z,6.70
2019-03-13T00:54:26.330Z,6.90
2019-03-13T00:56:54.808Z,6.10
2019-03-13T00:59:22.987Z,6.27
2019-03-13T01:01:59.452Z,6.30
2019-03-13T01:04:29.227Z,5.63
2019-03-13T01:06:59.014Z,4.90
2019-03-13T01:09:28.916Z,5.00
2019-03-13T01:11:57.146Z,5.63
2019-03-13T01:14:25.287Z,5.17
2019-03-13T01:16:53.379Z,5.37
2019-03-13T01:19:21.499Z,4.90
2019-03-13T01:21:49.615Z,4.23
2019-03-13T01:24:18.445Z,3.77
2019-03-13T01:26:46.770Z,3.60
2019-03-13T01:29:14.891Z,3.60
2019-03-13T01:31:59.761Z,3.27
2019-03-13T01:34:30.291Z,3.47
2019-03-13T01:36:58.491Z,2.85
2019-03-13T01:39:27.427Z,2.63
2019-03-13T01:41:55.620Z,2.70
2019-03-13T01:44:23.737Z,2.57
2019-03-13T01:46:51.923Z,2.93
2019-03-13T01:49:20.036Z,2.30
2019-03-13T01:51:48.191Z,2.20
2019-03-13T01:54:16.367Z,2.50
2019-03-13T01:56:44.482Z,1.92
2019-03-13T01:59:12.604Z,1.87
2019-03-13T02:01:40.764Z,2.47
2019-03-13T02:04:09.025Z,2.07
2019-03-13T02:06:38.784Z,2.30
2019-03-13T02:09:07.452Z,2.50
2019-03-13T02:11:35.632Z,2.23
2019-03-13T02:14:03.807Z,2.53
2019-03-13T02:16:31.915Z,2.33
2019-03-13T02:19:00.866Z,1.93
2019-03-13T02:21:28.985Z,2.30
2019-03-13T02:23:57.181Z,2.03
2019-03-13T02:26:25.302Z,2.03
2019-03-13T02:28:53.464Z,2.37
2019-03-13T02:31:21.586Z,2.37
2019-03-13T02:33:49.790Z,1.90
2019-03-13T02:36:18.185Z,2.05
2019-03-13T02:38:46.361Z,2.58
2019-03-13T02:41:15.233Z,3.00
2019-03-13T02:43:43.383Z,1.97
2019-03-13T02:46:11.634Z,1.90
2019-03-13T02:48:39.753Z,1.40
2019-03-13T02:51:07.861Z,1.47
2019-03-13T02:53:35.998Z,1.43
2019-03-13T02:56:04.170Z,1.80
2019-03-13T02:58:32.834Z,1.60
2019-03-13T03:01:02.605Z,1.80
2019-03-13T03:03:32.396Z,1.80
2019-03-13T03:06:01.334Z,1.73
2019-03-13T03:08:29.473Z,2.00
2019-03-13T03:10:59.253Z,2.27
2019-03-13T03:13:27.512Z,1.77
2019-03-13T03:15:55.622Z,2.20
2019-03-13T03:18:25.415Z,1.80
2019-03-13T03:20:53.596Z,2.20
2019-03-13T03:23:21.713Z,2.40
2019-03-13T03:25:49.905Z,1.60
2019-03-13T03:28:18.010Z,2.17
2019-03-13T03:30:46.156Z,2.23
2019-03-13T03:33:14.301Z,2.67
2019-03-13T03:35:42.449Z,1.90
2019-03-13T03:38:10.629Z,2.73
2019-03-13T03:40:38.745Z,2.27
2019-03-13T03:43:06.851Z,2.47
2019-03-13T03:45:35.005Z,2.13
2019-03-13T03:48:03.102Z,1.83
2019-03-13T03:50:31.249Z,1.93
2019-03-13T03:53:01.134Z,2.33
2019-03-13T03:55:29.372Z,2.67
2019-03-13T03:57:57.564Z,2.70
2019-03-13T04:00:25.760Z,2.90
2019-03-13T04:02:53.886Z,2.10
2019-03-13T04:05:22.113Z,2.10
2019-03-13T04:07:50.223Z,3.13
2019-03-13T04:10:18.360Z,2.60
2019-03-13T04:12:46.546Z,2.40
2019-03-13T04:15:15.825Z,2.30
2019-03-13T04:17:44.305Z,3.00
2019-03-13T04:20:15.882Z,2.63
2019-03-13T04:22:44.483Z,2.58
2019-03-13T04:25:23.343Z,2.20
2019-03-13T04:27:51.584Z,2.73
2019-03-13T04:30:19.725Z,2.60
2019-03-13T04:32:48.074Z,3.37
2019-03-13T04:35:16.262Z,2.60
2019-03-13T04:37:44.488Z,2.23
2019-03-13T04:40:13.373Z,2.37
2019-03-13T04:42:41.550Z,2.93
2019-03-13T04:45:10.147Z,2.23
2019-03-13T04:47:39.441Z,2.00
2019-03-13T04:50:08.656Z,2.10
2019-03-13T04:52:36.944Z,2.47
2019-03-13T04:55:06.178Z,2.43
2019-03-13T04:57:34.277Z,2.40
2019-03-13T05:00:02.821Z,2.43
2019-03-13T05:02:31.801Z,3.00
2019-03-13T05:04:59.905Z,1.83
2019-03-13T05:07:28.020Z,2.50
2019-03-13T05:09:56.213Z,2.80
2019-03-13T05:12:24.307Z,2.23
2019-03-13T05:14:52.415Z,3.12
2019-03-13T05:17:20.825Z,2.40
2019-03-13T05:19:49.679Z,2.80
2019-03-13T05:22:17.823Z,3.12
2019-03-13T05:24:45.931Z,2.40
2019-03-13T05:27:14.107Z,2.97
2019-03-13T05:29:42.322Z,2.40
2019-03-13T05:32:10.492Z,2.72
2019-03-13T05:34:38.637Z,2.87
2019-03-13T05:37:07.415Z,2.63
2019-03-13T05:39:35.573Z,3.37
2019-03-13T05:42:03.789Z,3.27
2019-03-13T05:44:31.910Z,2.80
2019-03-13T05:47:00.113Z,3.05
2019-03-13T05:49:28.226Z,2.87
2019-03-13T05:51:57.815Z,3.70
2019-03-13T05:54:26.166Z,1.90
2019-03-13T05:56:54.282Z,3.13
2019-03-13T05:59:22.388Z,2.77
2019-03-13T06:01:51.406Z,2.90
2019-03-13T06:04:19.514Z,2.10
2019-03-13T06:06:47.641Z,2.63
2019-03-13T06:09:15.804Z,3.00
2019-03-13T06:11:43.923Z,3.37
2019-03-13T06:14:12.222Z,5.07
2019-03-13T06:16:40.768Z,3.05
2019-03-13T06:19:10.296Z,2.50
2019-03-13T06:21:38.544Z,3.60
2019-03-13T06:24:06.784Z,2.77
2019-03-13T06:26:34.924Z,3.52
2019-03-13T06:29:03.168Z,3.37
2019-03-13T06:31:31.746Z,2.97
2019-03-13T06:33:59.841Z,3.90
2019-03-13T06:36:27.978Z,2.33
2019-03-13T06:38:59.031Z,2.37
2019-03-13T06:41:27.223Z,4.27
2019-03-13T06:43:55.439Z,3.60
2019-03-13T06:46:23.720Z,3.70
2019-03-13T06:48:53.843Z,3.03
2019-03-13T06:51:21.922Z,2.93
2019-03-13T06:53:50.065Z,3.20
2019-03-13T06:56:18.192Z,3.57
2019-03-13T06:58:47.996Z,3.93
2019-03-13T07:01:23.867Z,3.08
2019-03-13T07:04:05.140Z,2.70
2019-03-13T07:06:46.928Z,3.23
2019-03-13T07:09:16.684Z,2.70
2019-03-13T07:11:52.540Z,3.07
2019-03-13T07:14:39.658Z,3.00
2019-03-13T07:17:09.400Z,3.87
2019-03-13T07:19:57.385Z,2.72
2019-03-13T07:22:43.717Z,2.93
2019-03-13T07:25:31.519Z,2.63
2019-03-13T07:28:13.598Z,3.20
2019-03-13T07:30:46.121Z,2.67
2019-03-13T07:33:32.259Z,2.93
2019-03-13T07:36:18.115Z,3.22
2019-03-13T07:38:47.937Z,3.07
2019-03-13T07:41:26.569Z,5.20
2019-03-13T07:43:56.332Z,3.27
2019-03-13T07:46:26.096Z,3.22
2019-03-13T07:48:58.675Z,3.47
2019-03-13T07:51:31.219Z,3.60
2019-03-13T07:54:12.636Z,2.73
2019-03-13T07:56:45.272Z,3.30
2019-03-13T07:59:17.750Z,3.37
2019-03-13T08:01:50.992Z,2.60
2019-03-13T08:04:36.118Z,2.73
2019-03-13T08:07:05.904Z,2.57
2019-03-13T08:09:35.641Z,2.70
2019-03-13T08:12:05.425Z,2.13
2019-03-13T08:14:44.782Z,2.60
2019-03-13T08:17:31.210Z,4.07
2019-03-13T08:20:12.788Z,3.00
2019-03-13T08:22:51.211Z,2.47
2019-03-13T08:25:20.964Z,3.10
2019-03-13T08:28:08.994Z,2.87
2019-03-13T08:30:44.732Z,4.50
2019-03-13T08:33:17.563Z,2.50
2019-03-13T08:35:53.162Z,2.40
2019-03-13T08:38:25.860Z,2.57
2019-03-13T08:41:04.476Z,2.00
2019-03-13T08:43:50.946Z,2.40
2019-03-13T08:46:21.766Z,2.20
2019-03-13T08:49:06.752Z,2.80
2019-03-13T08:51:39.568Z,2.40
2019-03-13T08:54:21.278Z,2.70
2019-03-13T08:56:51.057Z,3.10
2019-03-13T08:59:26.663Z,3.23
2019-03-13T09:01:56.483Z,2.87
2019-03-13T09:04:26.247Z,3.08
2019-03-13T09:07:12.778Z,3.03
2019-03-13T09:09:57.439Z,3.40
2019-03-13T09:12:27.621Z,3.27
2019-03-13T09:15:09.624Z,3.23
2019-03-13T09:17:56.044Z,2.98
2019-03-13T09:20:40.762Z,3.93
2019-03-13T09:29:57.227Z,3.77
2019-03-13T09:32:32.892Z,3.57
2019-03-13T09:35:05.468Z,4.13
2019-03-13T09:37:35.237Z,2.43
2019-03-13T09:40:16.448Z,3.07
2019-03-13T09:42:48.808Z,4.07
2019-03-13T09:45:27.292Z,3.17
2019-03-13T09:47:59.633Z,3.97
2019-03-13T09:50:38.440Z,3.53
2019-03-13T09:53:08.198Z,3.63
2019-03-13T09:55:54.553Z,3.40
2019-03-13T09:58:33.279Z,3.10
2019-03-13T10:01:05.721Z,3.60
2019-03-13T10:03:51.981Z,4.57
2019-03-13T10:06:22.485Z,3.67
2019-03-13T10:09:10.083Z,3.58
2019-03-13T10:11:45.860Z,3.77
2019-03-13T10:14:21.748Z,2.37
2019-03-13T10:17:09.845Z,3.47
2019-03-13T10:19:35.080Z,3.93
2019-03-13T10:22:20.195Z,4.17
2019-03-13T10:24:53.043Z,2.93
2019-03-13T10:27:29.359Z,3.92
2019-03-13T10:30:01.698Z,3.53
2019-03-13T10:32:46.901Z,3.17
2019-03-13T10:35:34.948Z,3.02
2019-03-13T10:38:14.040Z,3.57
2019-03-13T10:40:44.802Z,3.03
2019-03-13T10:43:26.424Z,3.17
2019-03-13T10:46:02.084Z,3.80
2019-03-13T10:48:40.926Z,3.07
2019-03-13T10:51:16.497Z,2.43
2019-03-13T10:53:49.201Z,2.87
2019-03-13T10:56:37.371Z,3.03
2019-03-13T10:59:13.158Z,3.13
2019-03-13T11:01:46.312Z,3.37
2019-03-13T11:04:32.555Z,2.80
2019-03-13T11:07:05.413Z,3.25
2019-03-13T11:09:37.913Z,4.03
2019-03-13T11:12:16.819Z,2.77
2019-03-13T11:14:58.506Z,3.83
2019-03-13T11:17:37.234Z,3.60
2019-03-13T11:20:20.596Z,2.60
2019-03-13T11:23:02.156Z,3.55
2019-03-13T11:25:48.319Z,2.20
2019-03-13T11:28:21.159Z,3.63
2019-03-13T11:30:50.973Z,2.93
2019-03-13T11:33:36.125Z,3.73
2019-03-13T11:36:18.056Z,3.33
2019-03-13T11:38:59.897Z,2.70
2019-03-13T11:41:32.466Z,4.07
2019-03-13T11:44:07.990Z,3.72
2019-03-13T11:46:46.927Z,3.73
2019-03-13T11:49:31.793Z,2.87
2019-03-13T11:52:18.715Z,2.97
2019-03-13T11:54:54.367Z,4.20
2019-03-13T11:57:26.593Z,2.53
2019-03-13T11:59:56.544Z,3.50
2019-03-13T12:02:41.195Z,2.70
2019-03-13T12:05:21.140Z,3.37
2019-03-13T12:07:51.547Z,4.23
2019-03-13T12:10:22.442Z,4.42
2019-03-13T12:13:11.133Z,3.70
2019-03-13T12:15:46.318Z,3.83
2019-03-13T12:18:19.298Z,4.27
2019-03-13T12:20:51.735Z,3.63
2019-03-13T12:23:24.083Z,3.40
2019-03-13T12:26:05.995Z,2.50
2019-03-13T12:28:35.940Z,3.40
2019-03-13T12:31:24.699Z,3.05
2019-03-13T12:33:54.477Z,4.10
2019-03-13T12:36:24.269Z,3.43
2019-03-13T12:39:03.016Z,4.37
2019-03-13T12:41:35.659Z,5.08
2019-03-13T12:44:05.624Z,3.87
2019-03-13T12:46:51.826Z,4.30
2019-03-13T12:49:22.011Z,4.17
2019-03-13T12:52:08.345Z,3.83
2019-03-13T12:54:53.239Z,4.53
2019-03-13T12:57:28.901Z,4.27
2019-03-13T13:00:07.252Z,3.60
2019-03-13T13:02:54.850Z,3.80
2019-03-13T13:05:43.181Z,3.92
2019-03-13T13:08:19.101Z,3.65
2019-03-13T13:10:51.617Z,3.27
2019-03-13T13:13:36.223Z,3.70
2019-03-13T13:16:14.031Z,4.00
2019-03-13T13:18:46.216Z,3.37
2019-03-13T13:21:14.428Z,3.33
2019-03-13T13:23:42.541Z,3.43
2019-03-13T13:26:10.689Z,3.00
2019-03-13T13:28:38.839Z,3.17
2019-03-13T13:31:06.969Z,3.27
2019-03-13T13:33:35.182Z,2.85
2019-03-13T13:36:03.463Z,3.87
2019-03-13T13:38:32.368Z,6.08
2019-03-13T13:41:00.499Z,3.27
2019-03-13T13:43:28.642Z,3.80
2019-03-13T13:46:01.244Z,5.20
2019-03-13T13:48:29.577Z,4.60
2019-03-13T13:50:57.704Z,5.12
2019-03-13T13:53:25.838Z,3.23
2019-03-13T13:55:54.815Z,2.47
2019-03-13T13:58:23.012Z,3.90
2019-03-13T14:00:51.211Z,3.47
2019-03-13T14:03:19.319Z,3.60
2019-03-13T14:05:47.534Z,3.40
2019-03-13T14:08:15.773Z,4.13
2019-03-13T14:10:43.877Z,13.17
2019-03-13T14:13:12.078Z,16.63
2019-03-13T14:15:40.211Z,12.97
2019-03-13T14:18:08.320Z,11.80
2019-03-13T14:20:37.179Z,6.33
2019-03-13T14:23:05.318Z,7.53
2019-03-13T14:25:33.516Z,8.25
2019-03-13T14:28:01.615Z,9.07
2019-03-13T14:30:29.819Z,8.87
2019-03-13T14:32:57.944Z,7.40
2019-03-13T14:35:26.136Z,9.37
2019-03-13T14:37:54.335Z,10.13
2019-03-13T14:40:22.535Z,8.20
2019-03-13T14:42:50.681Z,6.57
2019-03-13T14:45:19.396Z,5.83
2019-03-13T14:47:47.605Z,3.03
2019-03-13T14:50:17.267Z,2.40
2019-03-13T14:52:45.440Z,1.87
2019-03-13T14:55:14.160Z,1.50
2019-03-13T14:57:42.292Z,1.63
2019-03-13T15:00:20.959Z,2.10
2019-03-13T15:02:49.120Z,1.90
2019-03-13T15:05:17.350Z,3.00
2019-03-13T15:07:45.684Z,7.20
2019-03-13T15:10:20.745Z,13.53
2019-03-13T15:12:49.053Z,10.50
2019-03-13T15:15:17.929Z,8.93
2019-03-13T15:17:46.132Z,4.07
2019-03-13T15:20:24.193Z,4.23
2019-03-13T15:22:53.768Z,3.30
2019-03-13T15:25:22.018Z,4.00
2019-03-13T15:27:52.294Z,3.43
2019-03-13T15:30:23.825Z,4.57
2019-03-13T15:32:52.015Z,2.10
2019-03-13T15:35:20.147Z,2.57
2019-03-13T15:37:48.326Z,2.17
2019-03-13T15:40:17.009Z,1.87
2019-03-13T15:42:45.411Z,2.80
2019-03-13T15:45:14.584Z,2.70
2019-03-13T15:47:42.806Z,2.57
2019-03-13T15:50:12.121Z,2.58
2019-03-13T15:52:40.337Z,1.93
2019-03-13T15:55:13.311Z,2.37
2019-03-13T15:57:41.591Z,2.47
2019-03-13T16:00:17.188Z,2.33
2019-03-13T16:02:45.539Z,2.70
2019-03-13T16:05:13.788Z,2.30
2019-03-13T16:07:41.979Z,2.20
2019-03-13T16:10:11.352Z,2.50
2019-03-13T16:12:40.761Z,2.02
2019-03-13T16:15:10.780Z,2.33
2019-03-13T16:17:39.010Z,1.53
2019-03-13T16:20:08.953Z,1.70
2019-03-13T16:22:37.121Z,1.73
2019-03-13T16:25:06.361Z,2.37
2019-03-13T16:27:34.603Z,1.80
2019-03-13T16:30:02.951Z,2.00
2019-03-13T16:32:43.338Z,1.40
2019-03-13T16:35:01.864Z,1.77
2019-03-13T16:37:31.672Z,2.10
2019-03-13T16:40:00.438Z,1.50
2019-03-13T16:42:28.616Z,1.52
2019-03-13T16:44:56.764Z,2.10
2019-03-13T16:47:24.929Z,1.70
2019-03-13T16:49:53.093Z,2.10
2019-03-13T16:52:21.286Z,1.57
2019-03-13T16:54:49.399Z,1.87
2019-03-13T16:57:17.571Z,1.73
2019-03-13T16:59:45.755Z,1.97
2019-03-13T17:02:13.937Z,1.83
2019-03-13T17:04:42.082Z,2.10
2019-03-13T17:07:10.186Z,2.60
2019-03-13T17:09:38.407Z,3.47
2019-03-13T17:12:06.540Z,3.33
2019-03-13T17:14:34.699Z,2.93
2019-03-13T17:17:02.871Z,2.87
2019-03-13T17:19:30.993Z,3.50
2019-03-13T17:21:59.317Z,2.73
2019-03-13T17:24:27.451Z,3.53
2019-03-13T17:26:55.596Z,8.10
2019-03-13T17:29:23.772Z,11.87
2019-03-13T17:31:52.298Z,13.97
2019-03-13T17:34:20.519Z,10.20
2019-03-13T17:36:48.676Z,7.62
2019-03-13T17:39:18.220Z,8.23
2019-03-13T17:41:46.461Z,9.45
2019-03-13T17:44:14.657Z,6.83
2019-03-13T17:46:42.885Z,7.58
2019-03-13T17:49:10.990Z,6.93
2019-03-13T17:51:39.244Z,5.50
2019-03-13T17:54:07.378Z,5.20
2019-03-13T17:56:35.590Z,4.77
2019-03-13T17:59:03.870Z,4.13
2019-03-13T18:01:32.017Z,3.60
2019-03-13T18:04:00.189Z,3.90
2019-03-13T18:06:28.322Z,3.70
2019-03-13T18:08:56.486Z,3.27
2019-03-13T18:11:24.809Z,3.70
2019-03-13T18:13:52.939Z,4.10
2019-03-13T18:16:21.055Z,5.75
2019-03-13T18:18:49.198Z,4.23
2019-03-13T18:21:17.455Z,4.37
2019-03-13T18:23:45.551Z,3.60
2019-03-13T18:26:13.665Z,5.47
2019-03-13T18:28:41.786Z,9.15
2019-03-13T18:31:10.124Z,11.10
2019-03-13T18:33:38.481Z,9.13
2019-03-13T18:36:06.671Z,10.13
2019-03-13T18:38:34.809Z,6.30
2019-03-13T18:41:03.093Z,5.87
2019-03-13T18:43:31.318Z,6.33
2019-03-13T18:45:59.602Z,4.90
2019-03-13T18:48:27.789Z,4.00
2019-03-13T18:50:55.970Z,3.67
2019-03-13T18:53:24.150Z,3.60
2019-03-13T18:55:52.484Z,4.10
2019-03-13T18:58:20.609Z,4.10
2019-03-13T19:00:48.754Z,4.47
2019-03-13T19:03:16.972Z,4.93
2019-03-13T19:05:46.757Z,4.87
2019-03-13T19:08:14.960Z,5.07
2019-03-13T19:10:43.173Z,6.15
2019-03-13T19:13:11.416Z,4.53
2019-03-13T19:15:40.241Z,4.12
2019-03-13T19:18:08.925Z,4.90
2019-03-13T19:20:37.121Z,4.13
2019-03-13T19:23:05.422Z,3.90
2019-03-13T19:25:33.590Z,3.87
2019-03-13T19:28:01.710Z,3.73
2019-03-13T19:30:33.078Z,4.50
2019-03-13T19:33:01.315Z,4.43
2019-03-13T19:35:29.499Z,3.53
2019-03-13T19:37:59.201Z,4.53
2019-03-13T19:40:27.317Z,3.87
2019-03-13T19:42:55.600Z,4.20
2019-03-13T19:45:25.265Z,4.37
2019-03-13T19:47:53.447Z,4.23
2019-03-13T19:50:21.637Z,4.47
2019-03-13T19:52:49.821Z,3.13
2019-03-13T19:55:18.273Z,2.87
2019-03-13T19:57:46.432Z,3.37
2019-03-13T20:00:19.147Z,2.80
2019-03-13T20:02:59.040Z,2.83
2019-03-13T20:05:17.988Z,2.80
2019-03-13T20:07:46.233Z,2.77
2019-03-13T20:10:15.920Z,3.93
2019-03-13T20:12:44.063Z,3.10
2019-03-13T20:15:13.904Z,2.87
2019-03-13T20:17:47.342Z,2.45
2019-03-13T20:20:16.475Z,2.53
2019-03-13T20:22:44.582Z,3.10
2019-03-13T20:25:17.310Z,3.00
2019-03-13T20:27:45.633Z,3.30
2019-03-13T20:30:14.855Z,3.03
2019-03-13T20:35:19.052Z,3.00
2019-03-13T20:37:47.268Z,2.25
2019-03-13T20:40:19.899Z,2.67
2019-03-13T20:42:48.203Z,4.27
2019-03-13T20:45:23.015Z,3.33
2019-03-13T20:47:51.419Z,4.63
2019-03-13T20:50:19.735Z,3.43
2019-03-13T20:52:47.883Z,3.43
2019-03-13T20:55:16.859Z,4.73
2019-03-13T20:57:45.152Z,4.10
2019-03-13T21:00:23.793Z,5.80
2019-03-13T21:02:52.872Z,9.03
2019-03-13T21:05:21.218Z,10.50
2019-03-13T21:07:49.513Z,7.42
2019-03-13T21:10:17.722Z,10.07
2019-03-13T21:12:45.877Z,6.43
2019-03-13T21:15:17.733Z,4.50
2019-03-13T21:17:46.085Z,4.33
2019-03-13T21:20:15.445Z,4.70
2019-03-13T21:22:43.801Z,4.13
2019-03-13T21:25:12.989Z,4.63
2019-03-13T21:27:41.095Z,3.80
2019-03-13T21:30:15.037Z,3.97
2019-03-13T21:32:43.578Z,4.27
2019-03-13T21:35:11.962Z,3.10
2019-03-13T21:37:40.169Z,3.58
2019-03-13T21:40:09.876Z,2.97
2019-03-13T21:42:38.759Z,3.45
2019-03-13T21:45:07.717Z,4.30
2019-03-13T21:47:36.597Z,3.67
2019-03-13T21:50:06.443Z,3.00
2019-03-13T21:52:34.609Z,3.43
2019-03-13T21:55:02.727Z,2.47
2019-03-13T21:57:30.835Z,3.10
2019-03-13T21:59:58.947Z,3.12
2019-03-13T22:02:32.636Z,2.60
2019-03-13T22:04:56.908Z,3.27
2019-03-13T22:07:25.177Z,2.30
2019-03-13T22:09:53.321Z,3.40
2019-03-13T22:12:21.559Z,3.40
2019-03-13T22:14:49.714Z,2.30
2019-03-13T22:17:17.821Z,3.53
2019-03-13T22:19:46.130Z,3.03
2019-03-13T22:22:14.284Z,2.40
2019-03-13T22:24:42.525Z,3.15
2019-03-13T22:27:10.848Z,2.72
2019-03-13T22:29:38.985Z,2.57
2019-03-13T22:32:07.191Z,2.90
2019-03-13T22:34:35.309Z,2.43
2019-03-13T22:37:03.508Z,3.03
2019-03-13T22:39:31.644Z,3.10
2019-03-13T22:41:59.749Z,2.30
2019-03-13T22:44:28.177Z,2.57
2019-03-13T22:46:56.276Z,2.30
2019-03-13T22:49:24.401Z,2.20
2019-03-13T22:51:52.525Z,2.27
2019-03-13T22:54:20.644Z,2.20
2019-03-13T22:56:48.852Z,1.70
2019-03-13T22:59:16.947Z,2.25
2019-03-13T23:01:45.060Z,1.83
2019-03-13T23:04:13.317Z,1.83
2019-03-13T23:06:41.449Z,1.80
2019-03-13T23:09:12.599Z,1.80
2019-03-13T23:11:40.994Z,1.93
2019-03-13T23:14:09.160Z,2.70
2019-03-13T23:16:37.260Z,2.40
2019-03-13T23:19:05.868Z,2.87
2019-03-13T23:21:33.957Z,1.80
2019-03-13T23:24:02.887Z,2.10
2019-03-13T23:26:30.997Z,2.67
2019-03-13T23:28:59.140Z,2.00
2019-03-13T23:31:27.329Z,2.50
2019-03-13T23:33:55.529Z,3.20
2019-03-13T23:36:23.665Z,2.00
2019-03-13T23:38:51.792Z,2.20
2019-03-13T23:41:19.909Z,2.37
2019-03-13T23:43:48.011Z,2.03
2019-03-13T23:46:16.125Z,1.80
2019-03-13T23:48:44.265Z,2.40
2019-03-13T23:51:12.437Z,3.07
2019-03-13T23:53:40.554Z,2.37
2019-03-13T23:56:08.689Z,1.73
2019-03-13T23:58:37.709Z,2.25
